createdAt,value
2018-03-29T00:02:10.364Z,9.97
2018-03-29T00:04:37.957Z,8.50
2018-03-29T00:07:05.554Z,8.83
2018-03-29T00:09:33.952Z,10.23
2018-03-29T00:12:01.544Z,7.97
2018-03-29T00:14:29.160Z,7.57
2018-03-29T00:16:57.625Z,7.93
2018-03-29T00:19:25.210Z,6.30
2018-03-29T00:21:52.832Z,8.53
2018-03-29T00:24:21.924Z,6.63
2018-03-29T00:26:50.304Z,8.00
2018-03-29T00:29:17.917Z,6.50
2018-03-29T00:31:45.512Z,7.77
2018-03-29T00:34:13.142Z,8.60
2018-03-29T00:36:40.741Z,7.60
2018-03-29T00:39:08.792Z,10.93
2018-03-29T00:41:36.448Z,9.13
2018-03-29T00:44:04.044Z,8.07
2018-03-29T00:46:32.805Z,8.00
2018-03-29T00:49:00.416Z,5.63
2018-03-29T00:51:28.763Z,3.83
2018-03-29T00:53:56.398Z,7.83
2018-03-29T00:56:23.981Z,4.70
2018-03-29T00:58:51.600Z,6.77
2018-03-29T01:01:19.189Z,8.87
2018-03-29T01:03:46.768Z,6.50
2018-03-29T01:06:14.404Z,4.33
2018-03-29T01:08:41.990Z,5.07
2018-03-29T01:11:09.611Z,7.93
2018-03-29T01:13:37.200Z,7.33
2018-03-29T01:16:04.824Z,6.27
2018-03-29T01:18:32.408Z,6.20
2018-03-29T01:20:59.991Z,5.13
2018-03-29T01:23:27.610Z,5.90
2018-03-29T01:25:55.192Z,7.33
2018-03-29T01:28:22.807Z,4.17
2018-03-29T01:30:51.156Z,5.47
2018-03-29T01:33:18.745Z,6.20
2018-03-29T01:35:46.359Z,5.73
2018-03-29T01:38:13.953Z,6.43
2018-03-29T01:40:42.328Z,7.30
2018-03-29T01:43:09.924Z,13.60
2018-03-29T01:45:37.548Z,5.43
2018-03-29T01:48:05.136Z,5.63
2018-03-29T01:50:32.717Z,8.10
2018-03-29T01:53:00.327Z,6.13
2018-03-29T01:55:27.911Z,9.43
2018-03-29T01:57:55.536Z,7.03
2018-03-29T02:00:23.120Z,6.70
2018-03-29T02:02:51.488Z,7.20
2018-03-29T02:05:19.876Z,7.83
2018-03-29T02:07:48.265Z,6.10
2018-03-29T02:10:16.603Z,5.33
2018-03-29T02:12:44.217Z,6.20
2018-03-29T02:15:11.810Z,4.70
2018-03-29T02:17:39.421Z,4.83
2018-03-29T02:20:07.772Z,6.23
2018-03-29T02:22:35.392Z,4.90
2018-03-29T02:25:02.978Z,4.77
2018-03-29T02:27:30.568Z,3.97
2018-03-29T02:29:58.180Z,3.93
2018-03-29T02:32:25.771Z,5.13
2018-03-29T02:34:54.899Z,7.07
2018-03-29T02:37:23.249Z,3.73
2018-03-29T02:39:51.609Z,7.67
2018-03-29T02:42:19.229Z,4.63
2018-03-29T02:44:46.820Z,3.73
2018-03-29T02:47:14.408Z,5.03
2018-03-29T02:49:42.026Z,6.00
2018-03-29T02:52:09.608Z,5.17
2018-03-29T02:54:37.204Z,7.77
2018-03-29T02:57:05.587Z,5.30
2018-03-29T02:59:33.977Z,3.60
2018-03-29T03:02:02.333Z,5.60
2018-03-29T03:04:29.916Z,4.60
2018-03-29T03:06:58.305Z,6.57
2018-03-29T03:09:25.889Z,4.53
2018-03-29T03:11:53.502Z,6.10
2018-03-29T03:14:21.864Z,5.50
2018-03-29T03:16:50.988Z,6.63
2018-03-29T03:19:19.339Z,5.73
2018-03-29T03:21:46.963Z,5.13
2018-03-29T03:24:14.540Z,5.20
2018-03-29T03:26:42.124Z,3.90
2018-03-29T03:29:09.734Z,5.17
2018-03-29T03:31:37.327Z,3.40
2018-03-29T03:34:04.949Z,4.00
2018-03-29T03:36:32.536Z,3.00
2018-03-29T03:39:00.124Z,3.13
2018-03-29T03:41:27.744Z,3.97
2018-03-29T03:43:55.332Z,3.40
2018-03-29T03:46:23.716Z,3.57
2018-03-29T03:48:52.080Z,3.13
2018-03-29T03:51:19.704Z,3.27
2018-03-29T03:53:47.288Z,3.17
2018-03-29T03:56:14.915Z,3.97
2018-03-29T03:58:43.272Z,4.63
2018-03-29T04:01:10.857Z,3.77
2018-03-29T04:03:38.472Z,4.47
2018-03-29T04:06:06.057Z,4.47
2018-03-29T04:08:33.672Z,5.47
2018-03-29T04:11:01.260Z,4.43
2018-03-29T04:13:28.853Z,8.07
2018-03-29T04:15:57.236Z,5.53
2018-03-29T04:18:25.592Z,5.17
2018-03-29T04:20:53.212Z,6.10
2018-03-29T04:23:20.800Z,7.73
2018-03-29T04:25:48.379Z,7.67
2018-03-29T04:28:16.759Z,9.07
2018-03-29T04:30:45.112Z,7.70
2018-03-29T04:33:12.728Z,9.03
2018-03-29T04:35:40.312Z,6.37
2018-03-29T04:38:07.939Z,4.80
2018-03-29T04:40:35.529Z,9.63
2018-03-29T04:43:03.112Z,9.97
2018-03-29T04:45:32.230Z,9.90
2018-03-29T04:47:59.824Z,7.40
2018-03-29T04:50:27.436Z,9.63
2018-03-29T04:52:55.024Z,7.37
2018-03-29T04:55:23.410Z,5.70
2018-03-29T04:57:51.755Z,6.60
2018-03-29T05:00:20.261Z,4.57
2018-03-29T05:02:48.638Z,7.63
2018-03-29T05:05:16.992Z,9.90
2018-03-29T05:07:44.612Z,7.17
2018-03-29T05:10:12.197Z,7.03
2018-03-29T05:12:39.780Z,5.50
2018-03-29T05:15:07.392Z,7.80
2018-03-29T05:17:34.979Z,8.40
2018-03-29T05:20:02.607Z,8.80
2018-03-29T05:22:30.189Z,8.10
2018-03-29T05:24:57.808Z,6.47
2018-03-29T05:27:26.158Z,7.70
2018-03-29T05:29:53.763Z,7.20
2018-03-29T05:32:21.345Z,7.43
2018-03-29T05:34:48.959Z,7.50
2018-03-29T05:37:17.335Z,4.73
2018-03-29T05:39:45.717Z,4.03
2018-03-29T05:42:14.099Z,9.10
2018-03-29T05:44:42.522Z,2.50
2018-03-29T05:47:10.132Z,4.97
2018-03-29T05:49:38.511Z,4.33
2018-03-29T05:52:06.901Z,8.23
2018-03-29T05:54:34.501Z,9.00
2018-03-29T05:57:02.126Z,4.80
2018-03-29T05:59:30.480Z,7.07
2018-03-29T06:01:58.069Z,4.10
2018-03-29T06:04:25.685Z,4.67
2018-03-29T06:06:53.280Z,5.67
2018-03-29T06:09:21.672Z,9.73
2018-03-29T06:11:49.252Z,9.60
2018-03-29T06:14:16.832Z,2.70
2018-03-29T06:16:47.305Z,6.97
2018-03-29T06:19:14.900Z,8.00
2018-03-29T06:21:42.513Z,5.67
2018-03-29T06:24:10.092Z,8.20
2018-03-29T06:26:37.700Z,7.17
2018-03-29T06:29:05.298Z,8.40
2018-03-29T06:31:33.695Z,9.37
2018-03-29T06:34:01.289Z,10.70
2018-03-29T06:36:28.879Z,4.87
2018-03-29T06:38:56.484Z,5.60
2018-03-29T06:41:24.068Z,9.23
2018-03-29T06:43:52.061Z,10.73
2018-03-29T06:46:19.707Z,8.07
2018-03-29T06:48:47.327Z,7.60
2018-03-29T06:51:15.696Z,9.10
2018-03-29T06:56:18.076Z,7.23
2018-03-29T06:58:45.701Z,12.70
2018-03-29T07:01:13.280Z,8.90
2018-03-29T07:03:41.636Z,15.20
2018-03-29T07:06:09.262Z,10.40
2018-03-29T07:08:36.849Z,11.30
2018-03-29T07:11:04.464Z,11.60
2018-03-29T07:13:32.820Z,13.67
2018-03-29T07:16:00.443Z,12.07
2018-03-29T07:18:28.036Z,9.87
2018-03-29T07:20:55.657Z,14.03
2018-03-29T07:23:23.252Z,9.07
2018-03-29T07:25:50.872Z,12.30
2018-03-29T07:28:18.456Z,10.87
2018-03-29T07:30:46.049Z,9.30
2018-03-29T07:33:13.672Z,11.87
2018-03-29T07:35:41.981Z,18.33
2018-03-29T07:38:09.595Z,9.80
2018-03-29T07:40:37.197Z,11.80
2018-03-29T07:43:04.817Z,6.83
2018-03-29T07:45:32.413Z,9.60
2018-03-29T07:48:00.021Z,16.57
2018-03-29T07:50:28.405Z,13.67
2018-03-29T07:52:55.997Z,13.27
2018-03-29T07:55:23.627Z,12.40
2018-03-29T07:57:51.346Z,15.53
2018-03-29T08:00:18.964Z,9.63
2018-03-29T08:02:46.551Z,12.03
2018-03-29T08:05:14.170Z,12.07
2018-03-29T08:07:41.756Z,12.73
2018-03-29T08:10:09.363Z,7.03
2018-03-29T08:12:36.952Z,13.20
2018-03-29T08:15:04.590Z,8.13
2018-03-29T08:17:32.963Z,5.30
2018-03-29T08:20:00.554Z,11.77
2018-03-29T08:22:28.168Z,12.10
2018-03-29T08:24:55.772Z,5.93
2018-03-29T08:27:23.452Z,12.33
2018-03-29T08:29:51.778Z,13.50
2018-03-29T08:32:20.160Z,10.70
2018-03-29T08:34:47.744Z,11.03
2018-03-29T08:37:16.178Z,13.17
2018-03-29T08:39:43.775Z,12.77
2018-03-29T08:42:11.397Z,4.60
2018-03-29T08:44:38.987Z,8.30
2018-03-29T08:47:07.339Z,9.90
2018-03-29T08:49:34.949Z,8.10
2018-03-29T08:52:02.541Z,8.77
2018-03-29T08:54:30.352Z,4.20
2018-03-29T08:56:58.700Z,6.43
2018-03-29T08:59:26.288Z,7.97
2018-03-29T09:01:53.901Z,6.57
2018-03-29T09:04:21.491Z,6.83
2018-03-29T09:06:50.617Z,7.80
2018-03-29T09:09:18.980Z,7.83
2018-03-29T09:11:46.587Z,5.43
2018-03-29T09:14:14.470Z,6.83
2018-03-29T09:16:42.464Z,9.77
2018-03-29T09:19:10.841Z,7.67
2018-03-29T09:21:38.436Z,11.60
2018-03-29T09:24:06.810Z,7.30
2018-03-29T09:26:35.166Z,6.77
2018-03-29T09:29:02.923Z,5.20
2018-03-29T09:31:30.516Z,9.73
2018-03-29T09:33:58.866Z,11.23
2018-03-29T09:36:26.476Z,3.83
2018-03-29T09:38:54.587Z,7.83
2018-03-29T09:41:23.963Z,9.23
2018-03-29T09:43:55.449Z,7.23
2018-03-29T09:46:24.226Z,6.83
2018-03-29T09:48:51.816Z,8.57
2018-03-29T09:51:20.253Z,9.10
2018-03-29T09:53:47.861Z,8.30
2018-03-29T09:56:16.215Z,8.87
2018-03-29T09:58:44.059Z,12.90
2018-03-29T10:01:11.649Z,10.27
2018-03-29T10:03:39.237Z,8.27
2018-03-29T10:06:13.394Z,4.77
2018-03-29T10:08:41.009Z,9.47
2018-03-29T10:11:09.359Z,8.57
2018-03-29T10:13:36.943Z,6.70
2018-03-29T10:16:05.328Z,10.57
2018-03-29T10:18:32.913Z,9.37
2018-03-29T10:21:00.529Z,9.10
2018-03-29T10:23:28.120Z,9.17
2018-03-29T10:25:56.504Z,10.37
2018-03-29T10:28:24.108Z,11.80
2018-03-29T10:30:51.724Z,11.50
2018-03-29T10:33:19.321Z,13.97
2018-03-29T10:35:46.945Z,13.40
2018-03-29T10:38:14.536Z,9.80
2018-03-29T10:40:42.119Z,6.17
2018-03-29T10:43:09.728Z,6.80
2018-03-29T10:45:37.317Z,18.70
2018-03-29T10:48:04.942Z,15.40
2018-03-29T10:50:32.557Z,15.83
2018-03-29T10:53:00.141Z,11.47
2018-03-29T10:55:28.531Z,9.13
2018-03-29T10:57:56.889Z,10.17
2018-03-29T11:00:24.520Z,11.37
2018-03-29T11:02:52.111Z,10.93
2018-03-29T11:05:20.464Z,9.87
2018-03-29T11:07:48.084Z,16.43
2018-03-29T11:10:15.682Z,16.27
2018-03-29T11:12:43.293Z,14.73
2018-03-29T11:15:11.654Z,10.73
2018-03-29T11:17:39.283Z,9.70
2018-03-29T11:20:06.938Z,13.37
2018-03-29T11:22:34.538Z,13.37
2018-03-29T11:25:02.307Z,9.57
2018-03-29T11:27:29.888Z,8.47
2018-03-29T11:29:57.503Z,6.77
2018-03-29T11:32:25.088Z,16.67
2018-03-29T11:34:53.444Z,13.00
2018-03-29T11:37:21.065Z,10.33
2018-03-29T11:39:48.656Z,7.70
2018-03-29T11:42:16.285Z,14.30
2018-03-29T11:44:43.868Z,7.57
2018-03-29T11:47:11.452Z,9.87
2018-03-29T11:49:39.372Z,12.90
2018-03-29T11:52:06.964Z,10.50
2018-03-29T11:54:34.576Z,12.73
2018-03-29T11:57:02.187Z,13.60
2018-03-29T11:59:29.804Z,11.70
2018-03-29T12:01:57.400Z,20.97
2018-03-29T12:04:25.112Z,8.40
2018-03-29T12:06:53.469Z,17.27
2018-03-29T12:09:21.054Z,8.97
2018-03-29T12:11:49.428Z,7.80
2018-03-29T12:14:17.784Z,9.07
2018-03-29T12:16:45.412Z,14.77
2018-03-29T12:19:13.080Z,15.20
2018-03-29T12:21:40.672Z,13.10
2018-03-29T12:24:08.280Z,12.43
2018-03-29T12:26:35.861Z,6.80
2018-03-29T12:29:03.476Z,7.50
2018-03-29T12:31:31.065Z,17.93
2018-03-29T12:33:58.662Z,6.67
2018-03-29T12:36:26.285Z,19.80
2018-03-29T12:38:53.886Z,15.00
2018-03-29T12:41:21.499Z,14.60
2018-03-29T12:43:49.096Z,13.93
2018-03-29T12:46:16.678Z,7.80
2018-03-29T12:48:44.295Z,11.83
2018-03-29T12:51:11.879Z,13.20
2018-03-29T12:53:39.500Z,11.57
2018-03-29T12:56:21.973Z,8.20
2018-03-29T12:58:50.365Z,11.57
2018-03-29T13:01:18.725Z,10.67
2018-03-29T13:03:46.312Z,8.67
2018-03-29T13:06:13.928Z,12.23
2018-03-29T13:08:41.576Z,10.77
2018-03-29T13:11:09.169Z,12.50
2018-03-29T13:13:36.752Z,5.10
2018-03-29T13:16:04.368Z,8.60
2018-03-29T13:18:31.961Z,9.50
2018-03-29T13:21:00.359Z,11.33
2018-03-29T13:23:27.949Z,8.90
2018-03-29T13:28:27.352Z,5.90
2018-03-29T13:30:55.000Z,7.70
2018-03-29T13:33:22.594Z,9.23
2018-03-29T13:35:50.240Z,16.17
2018-03-29T13:38:17.837Z,9.10
2018-03-29T13:40:45.451Z,6.63
2018-03-29T13:43:13.039Z,6.43
2018-03-29T13:45:40.655Z,7.27
2018-03-29T13:48:09.013Z,11.20
2018-03-29T13:50:36.636Z,11.10
2018-03-29T13:53:04.225Z,5.60
2018-03-29T13:55:31.816Z,7.30
2018-03-29T13:57:59.431Z,7.30
2018-03-29T14:00:27.023Z,6.53
2018-03-29T14:02:55.412Z,7.20
2018-03-29T14:05:23.768Z,8.67
2018-03-29T14:07:52.158Z,9.60
2018-03-29T14:10:20.504Z,5.73
2018-03-29T14:12:48.107Z,6.97
2018-03-29T14:15:16.494Z,6.93
2018-03-29T14:17:44.104Z,6.70
2018-03-29T14:20:11.725Z,6.23
2018-03-29T14:22:39.410Z,7.10
2018-03-29T14:25:07.032Z,5.80
2018-03-29T14:27:35.392Z,5.47
2018-03-29T14:30:03.864Z,10.83
2018-03-29T14:32:31.417Z,7.17
2018-03-29T14:34:59.006Z,5.87
2018-03-29T14:37:26.647Z,6.00
2018-03-29T14:39:55.056Z,7.57
2018-03-29T14:42:22.692Z,8.97
2018-03-29T14:44:51.068Z,7.33
2018-03-29T14:47:18.649Z,9.67
2018-03-29T14:49:47.035Z,11.17
2018-03-29T14:52:14.620Z,8.13
2018-03-29T14:54:42.248Z,10.23
2018-03-29T14:57:10.612Z,15.50
2018-03-29T14:59:38.209Z,8.10
2018-03-29T15:02:05.828Z,5.43
2018-03-29T15:04:33.427Z,4.60
2018-03-29T15:07:01.045Z,5.30
2018-03-29T15:09:28.631Z,8.33
2018-03-29T15:11:57.026Z,6.50
2018-03-29T15:14:24.629Z,9.63
2018-03-29T15:16:52.216Z,10.20
2018-03-29T15:19:20.604Z,14.20
2018-03-29T15:21:48.987Z,10.77
2018-03-29T15:24:17.378Z,9.83
2018-03-29T15:26:47.174Z,10.07
2018-03-29T15:29:14.911Z,11.13
2018-03-29T15:31:42.648Z,8.60
2018-03-29T15:34:10.314Z,9.10
2018-03-29T15:36:37.984Z,6.33
2018-03-29T15:39:05.851Z,10.90
2018-03-29T15:41:33.724Z,8.60
2018-03-29T15:44:01.587Z,10.07
2018-03-29T15:46:29.460Z,6.73
2018-03-29T15:48:57.321Z,8.27
2018-03-29T15:51:25.186Z,13.30
2018-03-29T15:53:53.060Z,9.27
2018-03-29T15:56:20.869Z,11.03
2018-03-29T15:58:48.689Z,9.83
2018-03-29T16:01:16.556Z,10.07
2018-03-29T16:03:44.423Z,11.10
2018-03-29T16:06:12.293Z,9.60
2018-03-29T16:08:40.108Z,9.33
2018-03-29T16:11:08.025Z,11.73
2018-03-29T16:13:35.621Z,12.40
2018-03-29T16:16:04.004Z,9.17
2018-03-29T16:18:32.360Z,8.83
2018-03-29T16:20:59.993Z,12.77
2018-03-29T16:23:27.593Z,11.73
2018-03-29T16:25:55.957Z,13.90
2018-03-29T16:28:24.340Z,9.50
2018-03-29T16:30:51.954Z,11.40
2018-03-29T16:33:19.574Z,13.63
2018-03-29T16:35:47.932Z,13.30
2018-03-29T16:38:15.567Z,12.87
2018-03-29T16:40:43.158Z,18.30
2018-03-29T16:43:10.784Z,13.70
2018-03-29T16:45:38.379Z,13.00
2018-03-29T16:48:06.009Z,14.40
2018-03-29T16:50:33.606Z,15.40
2018-03-29T16:53:01.200Z,12.20
2018-03-29T16:55:28.823Z,14.93
2018-03-29T16:57:56.416Z,12.87
2018-03-29T17:00:24.037Z,16.20
2018-03-29T17:02:51.629Z,14.60
2018-03-29T17:05:20.012Z,19.73
2018-03-29T17:07:47.629Z,14.60
2018-03-29T17:10:15.381Z,13.73
2018-03-29T17:12:42.976Z,12.17
2018-03-29T17:15:10.572Z,11.97
2018-03-29T17:17:38.187Z,15.50
2018-03-29T17:20:05.780Z,13.27
2018-03-29T17:22:33.420Z,15.77
2018-03-29T17:25:01.781Z,13.50
2018-03-29T17:27:29.386Z,16.77
2018-03-29T17:29:57.007Z,15.10
2018-03-29T17:32:24.604Z,15.53
2018-03-29T17:34:52.220Z,11.67
2018-03-29T17:37:19.804Z,14.67
2018-03-29T17:39:48.183Z,14.03
2018-03-29T17:42:16.536Z,21.60
2018-03-29T17:44:44.156Z,17.07
2018-03-29T17:47:11.742Z,13.40
2018-03-29T17:49:39.337Z,14.10
2018-03-29T17:52:07.716Z,14.60
2018-03-29T17:54:35.311Z,12.57
2018-03-29T17:57:02.963Z,14.53
2018-03-29T17:59:30.585Z,13.00
2018-03-29T18:01:58.208Z,12.10
2018-03-29T18:04:25.792Z,16.40
2018-03-29T18:06:53.662Z,16.60
2018-03-29T18:09:21.552Z,10.80
2018-03-29T18:11:50.108Z,11.37
2018-03-29T18:14:17.702Z,18.10
2018-03-29T18:16:46.072Z,10.33
2018-03-29T18:19:13.687Z,17.27
2018-03-29T18:21:41.328Z,32.50
2018-03-29T18:24:09.052Z,23.33
2018-03-29T18:26:36.641Z,17.63
2018-03-29T18:29:05.282Z,20.17
2018-03-29T18:31:33.050Z,17.30
2018-03-29T18:34:00.916Z,19.17
2018-03-29T18:36:28.528Z,21.87
2018-03-29T18:38:56.120Z,18.20
2018-03-29T18:41:23.749Z,16.80
2018-03-29T18:43:51.390Z,15.77
2018-03-29T18:46:19.780Z,14.17
2018-03-29T18:48:48.149Z,18.90
2018-03-29T18:51:16.578Z,21.30
2018-03-29T18:53:44.199Z,16.50
2018-03-29T18:56:12.556Z,24.17
2018-03-29T18:58:40.205Z,13.57
2018-03-29T19:01:07.795Z,23.47
2018-03-29T19:03:36.194Z,26.23
2018-03-29T19:06:03.791Z,20.80
2018-03-29T19:08:31.383Z,22.43
2018-03-29T19:10:59.763Z,21.07
2018-03-29T19:13:28.121Z,23.23
2018-03-29T19:15:55.736Z,14.00
2018-03-29T19:18:23.321Z,17.30
2018-03-29T19:20:50.953Z,22.07
2018-03-29T19:23:18.548Z,23.57
2018-03-29T19:25:46.136Z,14.27
2018-03-29T19:28:13.749Z,14.53
2018-03-29T19:30:41.344Z,22.27
2018-03-29T19:33:08.968Z,19.40
2018-03-29T19:35:36.563Z,20.17
2018-03-29T19:38:04.246Z,18.87
2018-03-29T19:40:31.839Z,52.47
2018-03-29T19:42:59.440Z,40.37
2018-03-29T19:45:27.063Z,32.00
2018-03-29T19:47:54.852Z,28.50
2018-03-29T19:50:22.480Z,24.70
2018-03-29T19:52:50.091Z,31.20
2018-03-29T19:55:17.690Z,62.17
2018-03-29T20:00:19.928Z,25.07
2018-03-29T20:02:47.546Z,30.00
2018-03-29T20:05:15.145Z,33.10
2018-03-29T20:07:42.796Z,19.20
2018-03-29T20:10:10.973Z,18.23
2018-03-29T20:12:38.608Z,25.27
2018-03-29T20:15:06.227Z,32.10
2018-03-29T20:17:33.826Z,26.83
2018-03-29T20:20:01.523Z,29.93
2018-03-29T20:22:29.135Z,32.30
2018-03-29T20:24:57.546Z,22.03
2018-03-29T20:27:25.145Z,25.37
2018-03-29T20:29:52.750Z,20.23
2018-03-29T20:32:20.429Z,21.33
2018-03-29T20:34:48.762Z,13.47
2018-03-29T20:37:16.388Z,18.53
2018-03-29T20:39:43.984Z,22.70
2018-03-29T20:42:11.607Z,27.30
2018-03-29T20:44:39.199Z,23.20
2018-03-29T20:47:06.828Z,30.87
2018-03-29T20:49:34.460Z,25.57
2018-03-29T20:52:02.048Z,27.13
2018-03-29T20:54:29.673Z,26.10
2018-03-29T20:56:58.036Z,27.57
2018-03-29T20:59:28.875Z,29.57
2018-03-29T21:01:56.871Z,26.57
2018-03-29T21:04:24.682Z,36.63
2018-03-29T21:06:52.313Z,34.03
2018-03-29T21:09:20.205Z,32.47
2018-03-29T21:11:48.064Z,38.53
2018-03-29T21:14:15.828Z,36.40
2018-03-29T21:16:43.907Z,33.60
2018-03-29T21:19:11.722Z,35.90
2018-03-29T21:21:39.530Z,34.70
2018-03-29T21:24:07.406Z,33.53
2018-03-29T21:26:35.265Z,30.87
2018-03-29T21:29:03.183Z,36.03
2018-03-29T21:31:31.829Z,35.20
2018-03-29T21:33:59.693Z,32.93
2018-03-29T21:36:27.548Z,32.17
2018-03-29T21:38:55.419Z,35.13
2018-03-29T21:41:23.003Z,34.00
2018-03-29T21:43:51.360Z,36.37
2018-03-29T21:46:18.984Z,42.03
2018-03-29T21:48:46.571Z,37.57
2018-03-29T21:51:14.198Z,39.57
2018-03-29T21:53:41.792Z,32.20
2018-03-29T21:56:09.967Z,35.40
2018-03-29T21:58:38.343Z,34.10
2018-03-29T22:01:07.332Z,36.93
2018-03-29T22:03:35.135Z,33.87
2018-03-29T22:06:02.800Z,35.67
2018-03-29T22:08:30.397Z,35.70
2018-03-29T22:10:58.020Z,34.17
2018-03-29T22:13:25.866Z,30.97
2018-03-29T22:15:53.457Z,23.80
2018-03-29T22:18:21.831Z,26.43
2018-03-29T22:20:51.004Z,32.03
2018-03-29T22:23:18.627Z,28.43
2018-03-29T22:25:46.778Z,29.90
2018-03-29T22:28:15.136Z,35.27
2018-03-29T22:30:42.760Z,28.40
2018-03-29T22:33:10.847Z,28.20
2018-03-29T22:35:39.377Z,27.70
2018-03-29T22:38:07.732Z,26.97
2018-03-29T22:40:35.458Z,32.30
2018-03-29T22:43:03.892Z,33.73
2018-03-29T22:45:32.251Z,32.07
2018-03-29T22:47:59.869Z,29.80
2018-03-29T22:50:27.463Z,32.03
2018-03-29T22:52:55.127Z,36.13
2018-03-29T22:55:22.725Z,32.20
2018-03-29T22:57:50.687Z,27.73
2018-03-29T23:00:27.931Z,29.13
2018-03-29T23:02:55.526Z,31.50
2018-03-29T23:05:23.910Z,30.63
2018-03-29T23:07:52.275Z,30.03
2018-03-29T23:10:20.687Z,32.17
2018-03-29T23:12:48.290Z,39.67
2018-03-29T23:15:15.888Z,36.67
2018-03-29T23:17:44.276Z,33.10
2018-03-29T23:20:11.874Z,39.33
2018-03-29T23:22:39.501Z,30.63
2018-03-29T23:25:07.092Z,32.40
2018-03-29T23:27:34.679Z,29.67
2018-03-29T23:30:02.505Z,24.87
2018-03-29T23:32:30.485Z,25.87
2018-03-29T23:34:58.156Z,30.50
2018-03-29T23:37:26.221Z,27.57
2018-03-29T23:39:53.827Z,25.63
2018-03-29T23:42:22.464Z,24.47
2018-03-29T23:44:50.068Z,33.70
2018-03-29T23:47:17.689Z,29.30
2018-03-29T23:49:45.272Z,24.73
2018-03-29T23:52:14.401Z,24.70
2018-03-29T23:54:42.764Z,28.60
2018-03-29T23:57:10.388Z,26.20
2018-03-29T23:59:37.972Z,26.83
